sensor_id;sensor_type;location;lat;lon;timestamp;temperature;humidity
45945;DHT22;31655;48.972;10.686;2022-07-06T00:01:24;15.30;89.80
45945;DHT22;31655;48.972;10.686;2022-07-06T00:03:49;15.20;90.40
45945;DHT22;31655;48.972;10.686;2022-07-06T00:06:15;15.20;90.80
45945;DHT22;31655;48.972;10.686;2022-07-06T00:08:42;15.20;90.90
45945;DHT22;31655;48.972;10.686;2022-07-06T00:11:08;15.30;91.10
45945;DHT22;31655;48.972;10.686;2022-07-06T00:13:33;15.10;91.30
45945;DHT22;31655;48.972;10.686;2022-07-06T00:15:59;15.10;91.10
45945;DHT22;31655;48.972;10.686;2022-07-06T00:18:25;15.00;91.40
45945;DHT22;31655;48.972;10.686;2022-07-06T00:20:50;15.10;91.20
45945;DHT22;31655;48.972;10.686;2022-07-06T00:23:16;16.30;91.60
45945;DHT22;31655;48.972;10.686;2022-07-06T00:25:41;15.20;91.50
45945;DHT22;31655;48.972;10.686;2022-07-06T00:28:07;15.30;91.60
45945;DHT22;31655;48.972;10.686;2022-07-06T00:30:32;15.90;91.50
45945;DHT22;31655;48.972;10.686;2022-07-06T00:32:58;15.40;91.20
45945;DHT22;31655;48.972;10.686;2022-07-06T00:35:27;15.50;91.20
45945;DHT22;31655;48.972;10.686;2022-07-06T00:37:52;15.60;90.90
45945;DHT22;31655;48.972;10.686;2022-07-06T00:40:18;15.60;90.90
45945;DHT22;31655;48.972;10.686;2022-07-06T00:42:46;15.80;90.80
45945;DHT22;31655;48.972;10.686;2022-07-06T00:45:12;15.80;90.90
45945;DHT22;31655;48.972;10.686;2022-07-06T00:47:39;15.80;90.90
45945;DHT22;31655;48.972;10.686;2022-07-06T00:50:08;17.20;91.20
45945;DHT22;31655;48.972;10.686;2022-07-06T00:52:41;15.80;90.90
45945;DHT22;31655;48.972;10.686;2022-07-06T00:55:08;15.80;90.90
45945;DHT22;31655;48.972;10.686;2022-07-06T00:57:34;15.90;90.90
45945;DHT22;31655;48.972;10.686;2022-07-06T01:00:03;16.90;91.10
45945;DHT22;31655;48.972;10.686;2022-07-06T01:02:31;15.80;91.20
45945;DHT22;31655;48.972;10.686;2022-07-06T01:04:57;15.80;91.10
45945;DHT22;31655;48.972;10.686;2022-07-06T01:07:23;18.00;91.90
45945;DHT22;31655;48.972;10.686;2022-07-06T01:09:49;15.70;91.50
45945;DHT22;31655;48.972;10.686;2022-07-06T01:12:14;15.80;91.90
45945;DHT22;31655;48.972;10.686;2022-07-06T01:14:40;15.60;92.30
45945;DHT22;31655;48.972;10.686;2022-07-06T01:17:07;15.60;92.50
45945;DHT22;31655;48.972;10.686;2022-07-06T01:19:32;15.50;92.90
45945;DHT22;31655;48.972;10.686;2022-07-06T01:21:58;17.40;94.10
45945;DHT22;31655;48.972;10.686;2022-07-06T01:24:23;15.20;94.10
45945;DHT22;31655;48.972;10.686;2022-07-06T01:26:49;15.10;95.90
45945;DHT22;31655;48.972;10.686;2022-07-06T01:29:14;14.90;96.80
45945;DHT22;31655;48.972;10.686;2022-07-06T01:31:48;14.90;97.80
45945;DHT22;31655;48.972;10.686;2022-07-06T01:34:14;15.00;96.90
45945;DHT22;31655;48.972;10.686;2022-07-06T01:36:41;15.20;97.10
45945;DHT22;31655;48.972;10.686;2022-07-06T01:39:08;16.00;97.80
45945;DHT22;31655;48.972;10.686;2022-07-06T01:41:34;14.90;97.70
45945;DHT22;31655;48.972;10.686;2022-07-06T01:44:01;14.80;97.80
45945;DHT22;31655;48.972;10.686;2022-07-06T01:46:27;14.80;97.80
45945;DHT22;31655;48.972;10.686;2022-07-06T01:48:53;14.80;98.00
45945;DHT22;31655;48.972;10.686;2022-07-06T01:51:19;14.80;98.30
45945;DHT22;31655;48.972;10.686;2022-07-06T01:53:44;14.80;98.60
45945;DHT22;31655;48.972;10.686;2022-07-06T01:56:11;14.70;99.00
45945;DHT22;31655;48.972;10.686;2022-07-06T01:58:37;14.60;99.60
45945;DHT22;31655;48.972;10.686;2022-07-06T02:01:10;14.60;99.70
45945;DHT22;31655;48.972;10.686;2022-07-06T02:03:36;14.60;99.90
45945;DHT22;31655;48.972;10.686;2022-07-06T02:06:03;14.80;99.90
45945;DHT22;31655;48.972;10.686;2022-07-06T02:08:29;14.50;99.90
45945;DHT22;31655;48.972;10.686;2022-07-06T02:10:55;14.50;99.90
45945;DHT22;31655;48.972;10.686;2022-07-06T02:13:21;14.50;99.90
45945;DHT22;31655;48.972;10.686;2022-07-06T02:15:46;14.30;99.90
45945;DHT22;31655;48.972;10.686;2022-07-06T02:18:12;14.50;99.90
45945;DHT22;31655;48.972;10.686;2022-07-06T02:20:37;14.60;99.90
45945;DHT22;31655;48.972;10.686;2022-07-06T02:23:03;14.40;99.90
45945;DHT22;31655;48.972;10.686;2022-07-06T02:25:28;14.40;99.90
45945;DHT22;31655;48.972;10.686;2022-07-06T02:30:20;14.40;99.90
45945;DHT22;31655;48.972;10.686;2022-07-06T02:32:46;14.40;99.90
45945;DHT22;31655;48.972;10.686;2022-07-06T02:35:11;14.40;99.90
45945;DHT22;31655;48.972;10.686;2022-07-06T02:37:37;14.50;99.90
45945;DHT22;31655;48.972;10.686;2022-07-06T02:40:03;14.40;99.90
45945;DHT22;31655;48.972;10.686;2022-07-06T02:42:29;14.30;99.90
45945;DHT22;31655;48.972;10.686;2022-07-06T02:44:55;14.30;99.90
45945;DHT22;31655;48.972;10.686;2022-07-06T02:47:21;14.30;99.90
45945;DHT22;31655;48.972;10.686;2022-07-06T02:49:46;14.30;99.90
45945;DHT22;31655;48.972;10.686;2022-07-06T02:52:12;14.30;99.90
45945;DHT22;31655;48.972;10.686;2022-07-06T02:54:38;14.20;99.90
45945;DHT22;31655;48.972;10.686;2022-07-06T02:57:03;14.10;99.90
45945;DHT22;31655;48.972;10.686;2022-07-06T02:59:29;14.00;99.90
45945;DHT22;31655;48.972;10.686;2022-07-06T03:01:54;14.00;99.90
45945;DHT22;31655;48.972;10.686;2022-07-06T03:04:20;13.90;99.90
45945;DHT22;31655;48.972;10.686;2022-07-06T03:06:46;13.90;99.90
45945;DHT22;31655;48.972;10.686;2022-07-06T03:09:11;14.60;99.90
45945;DHT22;31655;48.972;10.686;2022-07-06T03:11:37;14.90;99.90
45945;DHT22;31655;48.972;10.686;2022-07-06T03:14:06;13.80;99.90
45945;DHT22;31655;48.972;10.686;2022-07-06T03:16:32;13.70;99.90
45945;DHT22;31655;48.972;10.686;2022-07-06T03:18:57;13.90;99.90
45945;DHT22;31655;48.972;10.686;2022-07-06T03:21:24;15.70;99.90
45945;DHT22;31655;48.972;10.686;2022-07-06T03:23:49;13.60;99.90
45945;DHT22;31655;48.972;10.686;2022-07-06T03:26:15;13.80;99.90
45945;DHT22;31655;48.972;10.686;2022-07-06T03:28:40;13.60;99.90
45945;DHT22;31655;48.972;10.686;2022-07-06T03:31:06;14.70;99.90
45945;DHT22;31655;48.972;10.686;2022-07-06T03:33:31;13.60;99.90
45945;DHT22;31655;48.972;10.686;2022-07-06T03:35:57;14.20;99.90
45945;DHT22;31655;48.972;10.686;2022-07-06T03:38:23;13.80;99.90
45945;DHT22;31655;48.972;10.686;2022-07-06T03:40:48;13.70;99.90
45945;DHT22;31655;48.972;10.686;2022-07-06T03:43:14;13.70;99.90
45945;DHT22;31655;48.972;10.686;2022-07-06T03:45:40;13.70;99.90
45945;DHT22;31655;48.972;10.686;2022-07-06T03:48:05;13.80;99.90
45945;DHT22;31655;48.972;10.686;2022-07-06T03:50:31;13.80;99.90
45945;DHT22;31655;48.972;10.686;2022-07-06T03:52:56;13.80;99.90
45945;DHT22;31655;48.972;10.686;2022-07-06T03:55:22;13.90;99.90
45945;DHT22;31655;48.972;10.686;2022-07-06T03:57:47;13.90;99.90
45945;DHT22;31655;48.972;10.686;2022-07-06T04:00:13;15.30;99.90
45945;DHT22;31655;48.972;10.686;2022-07-06T04:02:39;14.20;99.90
45945;DHT22;31655;48.972;10.686;2022-07-06T04:05:05;14.20;99.90
45945;DHT22;31655;48.972;10.686;2022-07-06T04:07:31;14.30;99.90
45945;DHT22;31655;48.972;10.686;2022-07-06T04:09:57;16.30;99.90
45945;DHT22;31655;48.972;10.686;2022-07-06T04:12:22;14.40;99.90
45945;DHT22;31655;48.972;10.686;2022-07-06T04:14:48;14.30;99.90
45945;DHT22;31655;48.972;10.686;2022-07-06T04:17:13;15.70;99.90
45945;DHT22;31655;48.972;10.686;2022-07-06T04:19:57;15.50;99.90
45945;DHT22;31655;48.972;10.686;2022-07-06T04:22:23;14.40;99.90
45945;DHT22;31655;48.972;10.686;2022-07-06T04:24:49;14.50;99.90
45945;DHT22;31655;48.972;10.686;2022-07-06T04:27:14;14.60;99.90
45945;DHT22;31655;48.972;10.686;2022-07-06T04:29:40;14.80;99.90
45945;DHT22;31655;48.972;10.686;2022-07-06T04:32:06;14.70;99.90
45945;DHT22;31655;48.972;10.686;2022-07-06T04:34:31;14.80;99.90
45945;DHT22;31655;48.972;10.686;2022-07-06T04:36:57;14.90;99.90
45945;DHT22;31655;48.972;10.686;2022-07-06T04:39:22;15.10;99.90
45945;DHT22;31655;48.972;10.686;2022-07-06T04:41:49;15.20;99.90
45945;DHT22;31655;48.972;10.686;2022-07-06T04:44:15;15.30;99.90
45945;DHT22;31655;48.972;10.686;2022-07-06T04:46:40;15.30;99.90
45945;DHT22;31655;48.972;10.686;2022-07-06T04:49:06;15.40;99.90
45945;DHT22;31655;48.972;10.686;2022-07-06T04:51:32;15.50;99.90
45945;DHT22;31655;48.972;10.686;2022-07-06T04:53:58;15.40;99.90
45945;DHT22;31655;48.972;10.686;2022-07-06T04:56:23;16.20;99.90
45945;DHT22;31655;48.972;10.686;2022-07-06T04:58:49;15.50;99.90
45945;DHT22;31655;48.972;10.686;2022-07-06T05:01:14;15.50;99.90
45945;DHT22;31655;48.972;10.686;2022-07-06T05:03:40;15.80;99.90
45945;DHT22;31655;48.972;10.686;2022-07-06T05:06:06;16.30;99.90
45945;DHT22;31655;48.972;10.686;2022-07-06T05:08:33;17.70;99.90
45945;DHT22;31655;48.972;10.686;2022-07-06T05:10:58;19.60;99.90
45945;DHT22;31655;48.972;10.686;2022-07-06T05:13:24;21.20;95.00
45945;DHT22;31655;48.972;10.686;2022-07-06T05:15:49;22.40;89.40
45945;DHT22;31655;48.972;10.686;2022-07-06T05:18:15;23.10;83.70
45945;DHT22;31655;48.972;10.686;2022-07-06T05:20:41;24.30;77.50
45945;DHT22;31655;48.972;10.686;2022-07-06T05:23:06;24.60;74.40
45945;DHT22;31655;48.972;10.686;2022-07-06T05:25:32;25.40;70.30
45945;DHT22;31655;48.972;10.686;2022-07-06T05:27:58;25.60;67.80
45945;DHT22;31655;48.972;10.686;2022-07-06T05:30:25;25.70;66.20
45945;DHT22;31655;48.972;10.686;2022-07-06T05:32:50;25.90;65.00
45945;DHT22;31655;48.972;10.686;2022-07-06T05:35:16;26.90;64.40
45945;DHT22;31655;48.972;10.686;2022-07-06T05:37:42;27.10;63.00
45945;DHT22;31655;48.972;10.686;2022-07-06T05:40:08;26.70;62.80
45945;DHT22;31655;48.972;10.686;2022-07-06T05:42:34;26.80;62.50
45945;DHT22;31655;48.972;10.686;2022-07-06T05:44:59;26.90;61.30
45945;DHT22;31655;48.972;10.686;2022-07-06T05:47:25;27.60;61.20
45945;DHT22;31655;48.972;10.686;2022-07-06T05:50:09;27.80;59.80
45945;DHT22;31655;48.972;10.686;2022-07-06T05:52:39;27.80;60.20
45945;DHT22;31655;48.972;10.686;2022-07-06T05:55:05;26.90;60.20
45945;DHT22;31655;48.972;10.686;2022-07-06T05:57:31;27.00;61.80
45945;DHT22;31655;48.972;10.686;2022-07-06T05:59:56;27.10;62.00
45945;DHT22;31655;48.972;10.686;2022-07-06T06:02:22;28.00;60.50
45945;DHT22;31655;48.972;10.686;2022-07-06T06:04:48;28.70;58.30
45945;DHT22;31655;48.972;10.686;2022-07-06T06:07:13;28.60;58.40
45945;DHT22;31655;48.972;10.686;2022-07-06T06:09:39;28.70;57.80
45945;DHT22;31655;48.972;10.686;2022-07-06T06:12:05;28.40;57.90
45945;DHT22;31655;48.972;10.686;2022-07-06T06:14:30;28.30;57.60
45945;DHT22;31655;48.972;10.686;2022-07-06T06:16:56;28.20;58.60
45945;DHT22;31655;48.972;10.686;2022-07-06T06:19:22;28.30;58.60
45945;DHT22;31655;48.972;10.686;2022-07-06T06:21:47;29.00;58.20
45945;DHT22;31655;48.972;10.686;2022-07-06T06:24:13;28.50;57.90
45945;DHT22;31655;48.972;10.686;2022-07-06T06:26:38;28.20;58.30
45945;DHT22;31655;48.972;10.686;2022-07-06T06:29:04;28.40;58.60
45945;DHT22;31655;48.972;10.686;2022-07-06T06:31:29;29.00;57.00
45945;DHT22;31655;48.972;10.686;2022-07-06T06:33:55;29.40;56.20
45945;DHT22;31655;48.972;10.686;2022-07-06T06:36:20;29.40;56.20
45945;DHT22;31655;48.972;10.686;2022-07-06T06:38:46;29.40;56.10
45945;DHT22;31655;48.972;10.686;2022-07-06T06:41:13;28.90;56.30
45945;DHT22;31655;48.972;10.686;2022-07-06T06:43:38;29.00;56.90
45945;DHT22;31655;48.972;10.686;2022-07-06T06:46:04;29.10;56.20
45945;DHT22;31655;48.972;10.686;2022-07-06T06:48:29;29.80;55.20
45945;DHT22;31655;48.972;10.686;2022-07-06T06:50:57;30.80;54.20
45945;DHT22;31655;48.972;10.686;2022-07-06T06:53:22;30.40;53.40
45945;DHT22;31655;48.972;10.686;2022-07-06T06:55:48;30.20;53.40
45945;DHT22;31655;48.972;10.686;2022-07-06T06:58:14;30.80;53.10
45945;DHT22;31655;48.972;10.686;2022-07-06T07:00:40;30.70;52.20
45945;DHT22;31655;48.972;10.686;2022-07-06T07:03:05;31.00;52.40
45945;DHT22;31655;48.972;10.686;2022-07-06T07:05:31;30.60;52.90
45945;DHT22;31655;48.972;10.686;2022-07-06T07:07:57;31.00;52.50
45945;DHT22;31655;48.972;10.686;2022-07-06T07:10:25;31.10;52.50
45945;DHT22;31655;48.972;10.686;2022-07-06T07:12:51;31.50;51.70
45945;DHT22;31655;48.972;10.686;2022-07-06T07:15:17;30.80;51.80
45945;DHT22;31655;48.972;10.686;2022-07-06T07:17:42;31.20;52.10
45945;DHT22;31655;48.972;10.686;2022-07-06T07:20:09;31.30;51.70
45945;DHT22;31655;48.972;10.686;2022-07-06T07:22:34;31.30;51.30
45945;DHT22;31655;48.972;10.686;2022-07-06T07:25:00;31.80;51.60
45945;DHT22;31655;48.972;10.686;2022-07-06T07:27:26;32.40;50.00
45945;DHT22;31655;48.972;10.686;2022-07-06T07:29:52;32.10;50.80
45945;DHT22;31655;48.972;10.686;2022-07-06T07:32:19;32.70;49.60
45945;DHT22;31655;48.972;10.686;2022-07-06T07:34:45;32.60;49.50
45945;DHT22;31655;48.972;10.686;2022-07-06T07:37:11;31.90;50.00
45945;DHT22;31655;48.972;10.686;2022-07-06T07:39:36;33.10;49.30
45945;DHT22;31655;48.972;10.686;2022-07-06T07:42:02;32.60;48.50
45945;DHT22;31655;48.972;10.686;2022-07-06T07:44:28;32.60;49.00
45945;DHT22;31655;48.972;10.686;2022-07-06T07:46:54;32.40;50.90
45945;DHT22;31655;48.972;10.686;2022-07-06T07:49:23;32.90;49.30
45945;DHT22;31655;48.972;10.686;2022-07-06T07:51:49;33.30;49.00
45945;DHT22;31655;48.972;10.686;2022-07-06T07:54:14;32.60;49.80
45945;DHT22;31655;48.972;10.686;2022-07-06T07:56:40;33.00;48.90
45945;DHT22;31655;48.972;10.686;2022-07-06T07:59:09;33.30;48.10
45945;DHT22;31655;48.972;10.686;2022-07-06T08:01:34;33.30;48.00
45945;DHT22;31655;48.972;10.686;2022-07-06T08:04:01;33.70;47.30
45945;DHT22;31655;48.972;10.686;2022-07-06T08:06:26;33.60;48.00
45945;DHT22;31655;48.972;10.686;2022-07-06T08:08:52;33.70;47.50
45945;DHT22;31655;48.972;10.686;2022-07-06T08:11:19;33.30;48.20
45945;DHT22;31655;48.972;10.686;2022-07-06T08:13:45;33.30;48.80
45945;DHT22;31655;48.972;10.686;2022-07-06T08:16:10;33.10;48.00
45945;DHT22;31655;48.972;10.686;2022-07-06T08:18:36;33.20;47.30
45945;DHT22;31655;48.972;10.686;2022-07-06T08:21:03;33.20;47.80
45945;DHT22;31655;48.972;10.686;2022-07-06T08:23:29;32.60;48.00
45945;DHT22;31655;48.972;10.686;2022-07-06T08:25:54;33.00;47.20
45945;DHT22;31655;48.972;10.686;2022-07-06T08:28:20;32.90;47.50
45945;DHT22;31655;48.972;10.686;2022-07-06T08:30:46;33.60;47.80
45945;DHT22;31655;48.972;10.686;2022-07-06T08:33:13;34.30;45.80
45945;DHT22;31655;48.972;10.686;2022-07-06T08:35:39;34.30;45.70
45945;DHT22;31655;48.972;10.686;2022-07-06T08:38:04;33.70;46.70
45945;DHT22;31655;48.972;10.686;2022-07-06T08:40:33;33.50;46.70
45945;DHT22;31655;48.972;10.686;2022-07-06T08:43:00;32.80;47.50
45945;DHT22;31655;48.972;10.686;2022-07-06T08:45:26;32.70;48.40
45945;DHT22;31655;48.972;10.686;2022-07-06T08:47:54;32.70;47.00
45945;DHT22;31655;48.972;10.686;2022-07-06T08:50:21;32.90;47.20
45945;DHT22;31655;48.972;10.686;2022-07-06T08:52:50;33.00;46.80
45945;DHT22;31655;48.972;10.686;2022-07-06T08:55:17;32.90;47.50
45945;DHT22;31655;48.972;10.686;2022-07-06T08:57:47;33.10;44.80
45945;DHT22;31655;48.972;10.686;2022-07-06T09:00:13;33.10;45.40
45945;DHT22;31655;48.972;10.686;2022-07-06T09:02:40;33.20;44.60
45945;DHT22;31655;48.972;10.686;2022-07-06T09:05:06;33.10;46.30
45945;DHT22;31655;48.972;10.686;2022-07-06T09:07:34;33.60;44.60
45945;DHT22;31655;48.972;10.686;2022-07-06T09:10:00;34.00;44.50
45945;DHT22;31655;48.972;10.686;2022-07-06T09:12:27;34.20;45.10
45945;DHT22;31655;48.972;10.686;2022-07-06T09:14:56;34.20;45.40
45945;DHT22;31655;48.972;10.686;2022-07-06T09:17:26;34.00;45.90
45945;DHT22;31655;48.972;10.686;2022-07-06T09:19:53;33.80;43.50
45945;DHT22;31655;48.972;10.686;2022-07-06T09:22:27;33.20;43.90
45945;DHT22;31655;48.972;10.686;2022-07-06T09:24:53;32.50;45.20
45945;DHT22;31655;48.972;10.686;2022-07-06T09:27:19;32.30;44.70
45945;DHT22;31655;48.972;10.686;2022-07-06T09:29:45;32.50;45.90
45945;DHT22;31655;48.972;10.686;2022-07-06T09:32:10;32.50;45.60
45945;DHT22;31655;48.972;10.686;2022-07-06T09:34:44;32.50;45.10
45945;DHT22;31655;48.972;10.686;2022-07-06T09:37:10;32.60;45.30
45945;DHT22;31655;48.972;10.686;2022-07-06T09:39:36;32.20;44.50
45945;DHT22;31655;48.972;10.686;2022-07-06T09:42:04;31.90;46.50
45945;DHT22;31655;48.972;10.686;2022-07-06T09:44:31;31.40;46.40
45945;DHT22;31655;48.972;10.686;2022-07-06T09:46:59;31.50;46.00
45945;DHT22;31655;48.972;10.686;2022-07-06T09:49:26;31.50;46.50
45945;DHT22;31655;48.972;10.686;2022-07-06T09:51:57;31.50;46.70
45945;DHT22;31655;48.972;10.686;2022-07-06T09:54:23;31.70;47.20
45945;DHT22;31655;48.972;10.686;2022-07-06T09:56:50;32.50;45.80
45945;DHT22;31655;48.972;10.686;2022-07-06T09:59:20;31.50;46.20
45945;DHT22;31655;48.972;10.686;2022-07-06T10:01:47;31.40;46.70
45945;DHT22;31655;48.972;10.686;2022-07-06T10:04:15;30.60;48.90
45945;DHT22;31655;48.972;10.686;2022-07-06T10:06:44;30.10;50.00
45945;DHT22;31655;48.972;10.686;2022-07-06T10:09:11;30.60;48.20
45945;DHT22;31655;48.972;10.686;2022-07-06T10:11:39;30.90;47.40
45945;DHT22;31655;48.972;10.686;2022-07-06T10:14:07;31.50;47.10
45945;DHT22;31655;48.972;10.686;2022-07-06T10:16:37;31.20;47.30
45945;DHT22;31655;48.972;10.686;2022-07-06T10:19:08;30.40;47.80
45945;DHT22;31655;48.972;10.686;2022-07-06T10:21:39;30.40;48.50
45945;DHT22;31655;48.972;10.686;2022-07-06T10:24:06;29.50;47.80
45945;DHT22;31655;48.972;10.686;2022-07-06T10:26:36;29.80;49.90
45945;DHT22;31655;48.972;10.686;2022-07-06T10:29:03;30.60;48.90
45945;DHT22;31655;48.972;10.686;2022-07-06T10:31:30;31.50;47.40
45945;DHT22;31655;48.972;10.686;2022-07-06T10:33:57;31.40;46.10
45945;DHT22;31655;48.972;10.686;2022-07-06T10:36:24;31.10;46.70
45945;DHT22;31655;48.972;10.686;2022-07-06T10:38:51;30.20;48.60
45945;DHT22;31655;48.972;10.686;2022-07-06T10:41:18;29.30;49.40
45945;DHT22;31655;48.972;10.686;2022-07-06T10:43:46;28.90;50.90
45945;DHT22;31655;48.972;10.686;2022-07-06T10:46:13;28.50;50.50
45945;DHT22;31655;48.972;10.686;2022-07-06T10:48:44;28.10;50.90
45945;DHT22;31655;48.972;10.686;2022-07-06T10:51:23;27.80;50.70
45945;DHT22;31655;48.972;10.686;2022-07-06T10:54:00;27.80;51.70
45945;DHT22;31655;48.972;10.686;2022-07-06T10:56:37;27.70;53.20
45945;DHT22;31655;48.972;10.686;2022-07-06T10:59:09;28.40;53.10
45945;DHT22;31655;48.972;10.686;2022-07-06T11:01:35;29.00;50.70
45945;DHT22;31655;48.972;10.686;2022-07-06T11:06:31;28.60;50.00
45945;DHT22;31655;48.972;10.686;2022-07-06T11:09:02;27.90;51.00
45945;DHT22;31655;48.972;10.686;2022-07-06T11:14:00;28.90;50.60
45945;DHT22;31655;48.972;10.686;2022-07-06T11:16:40;29.50;49.40
45945;DHT22;31655;48.972;10.686;2022-07-06T11:19:26;30.60;48.80
45945;DHT22;31655;48.972;10.686;2022-07-06T11:21:55;30.80;48.30
45945;DHT22;31655;48.972;10.686;2022-07-06T11:24:24;30.30;48.10
45945;DHT22;31655;48.972;10.686;2022-07-06T11:26:52;29.60;49.10
45945;DHT22;31655;48.972;10.686;2022-07-06T11:29:20;28.80;49.10
45945;DHT22;31655;48.972;10.686;2022-07-06T11:31:51;28.10;49.40
45945;DHT22;31655;48.972;10.686;2022-07-06T11:34:25;29.10;50.90
45945;DHT22;31655;48.972;10.686;2022-07-06T11:36:58;27.20;52.10
45945;DHT22;31655;48.972;10.686;2022-07-06T11:39:29;27.30;53.00
45945;DHT22;31655;48.972;10.686;2022-07-06T11:41:55;27.80;51.60
45945;DHT22;31655;48.972;10.686;2022-07-06T11:44:21;27.90;50.70
45945;DHT22;31655;48.972;10.686;2022-07-06T11:46:47;27.80;50.50
45945;DHT22;31655;48.972;10.686;2022-07-06T11:49:12;28.00;52.30
45945;DHT22;31655;48.972;10.686;2022-07-06T11:51:40;28.20;50.90
45945;DHT22;31655;48.972;10.686;2022-07-06T11:54:10;28.10;51.50
45945;DHT22;31655;48.972;10.686;2022-07-06T11:56:36;28.10;51.70
45945;DHT22;31655;48.972;10.686;2022-07-06T11:59:02;28.20;51.20
45945;DHT22;31655;48.972;10.686;2022-07-06T12:01:29;28.60;50.60
45945;DHT22;31655;48.972;10.686;2022-07-06T12:04:01;29.10;51.00
45945;DHT22;31655;48.972;10.686;2022-07-06T12:09:00;29.30;48.40
45945;DHT22;31655;48.972;10.686;2022-07-06T12:11:34;28.90;50.20
45945;DHT22;31655;48.972;10.686;2022-07-06T12:14:17;28.40;50.20
45945;DHT22;31655;48.972;10.686;2022-07-06T12:16:44;27.60;51.10
45945;DHT22;31655;48.972;10.686;2022-07-06T12:19:09;27.70;52.60
45945;DHT22;31655;48.972;10.686;2022-07-06T12:21:42;27.80;52.30
45945;DHT22;31655;48.972;10.686;2022-07-06T12:24:08;27.80;52.20
45945;DHT22;31655;48.972;10.686;2022-07-06T12:26:39;27.90;51.30
45945;DHT22;31655;48.972;10.686;2022-07-06T12:29:11;27.90;51.00
45945;DHT22;31655;48.972;10.686;2022-07-06T12:31:50;27.40;51.80
45945;DHT22;31655;48.972;10.686;2022-07-06T12:34:18;27.20;52.40
45945;DHT22;31655;48.972;10.686;2022-07-06T12:36:48;27.10;52.50
45945;DHT22;31655;48.972;10.686;2022-07-06T12:39:17;27.20;52.90
45945;DHT22;31655;48.972;10.686;2022-07-06T12:41:48;27.10;52.60
45945;DHT22;31655;48.972;10.686;2022-07-06T12:44:22;27.40;52.60
45945;DHT22;31655;48.972;10.686;2022-07-06T12:46:49;27.40;52.60
45945;DHT22;31655;48.972;10.686;2022-07-06T12:49:20;27.80;51.60
45945;DHT22;31655;48.972;10.686;2022-07-06T12:51:52;27.90;52.00
45945;DHT22;31655;48.972;10.686;2022-07-06T12:54:18;28.10;51.70
45945;DHT22;31655;48.972;10.686;2022-07-06T12:57:10;28.20;51.70
45945;DHT22;31655;48.972;10.686;2022-07-06T13:02:19;26.50;52.90
45945;DHT22;31655;48.972;10.686;2022-07-06T13:04:57;26.30;54.10
45945;DHT22;31655;48.972;10.686;2022-07-06T13:07:24;26.60;54.80
45945;DHT22;31655;48.972;10.686;2022-07-06T13:09:50;27.00;53.50
45945;DHT22;31655;48.972;10.686;2022-07-06T13:12:15;27.50;53.00
45945;DHT22;31655;48.972;10.686;2022-07-06T13:14:41;27.70;53.30
45945;DHT22;31655;48.972;10.686;2022-07-06T13:17:07;27.50;52.00
45945;DHT22;31655;48.972;10.686;2022-07-06T13:19:33;27.20;52.50
45945;DHT22;31655;48.972;10.686;2022-07-06T13:21:58;27.30;52.30
45945;DHT22;31655;48.972;10.686;2022-07-06T13:24:24;27.20;53.10
45945;DHT22;31655;48.972;10.686;2022-07-06T13:26:50;27.10;52.50
45945;DHT22;31655;48.972;10.686;2022-07-06T13:29:16;26.70;52.90
45945;DHT22;31655;48.972;10.686;2022-07-06T13:31:41;26.60;53.30
45945;DHT22;31655;48.972;10.686;2022-07-06T13:34:07;26.30;53.50
45945;DHT22;31655;48.972;10.686;2022-07-06T13:36:34;26.30;53.80
45945;DHT22;31655;48.972;10.686;2022-07-06T13:39:00;26.70;53.90
45945;DHT22;31655;48.972;10.686;2022-07-06T13:41:26;26.70;52.40
45945;DHT22;31655;48.972;10.686;2022-07-06T13:43:52;26.50;53.60
45945;DHT22;31655;48.972;10.686;2022-07-06T13:46:17;26.50;54.10
45945;DHT22;31655;48.972;10.686;2022-07-06T13:48:43;26.40;53.80
45945;DHT22;31655;48.972;10.686;2022-07-06T13:51:09;26.60;53.90
45945;DHT22;31655;48.972;10.686;2022-07-06T13:53:35;26.60;53.30
45945;DHT22;31655;48.972;10.686;2022-07-06T13:56:01;26.50;54.70
45945;DHT22;31655;48.972;10.686;2022-07-06T13:58:26;26.60;54.80
45945;DHT22;31655;48.972;10.686;2022-07-06T14:00:52;26.80;54.80
45945;DHT22;31655;48.972;10.686;2022-07-06T14:03:18;26.50;54.90
45945;DHT22;31655;48.972;10.686;2022-07-06T14:05:43;26.90;54.70
45945;DHT22;31655;48.972;10.686;2022-07-06T14:08:09;27.40;54.10
45945;DHT22;31655;48.972;10.686;2022-07-06T14:10:34;27.50;53.30
45945;DHT22;31655;48.972;10.686;2022-07-06T14:13:00;27.20;54.10
45945;DHT22;31655;48.972;10.686;2022-07-06T14:15:26;27.00;53.20
45945;DHT22;31655;48.972;10.686;2022-07-06T14:17:51;27.30;53.90
45945;DHT22;31655;48.972;10.686;2022-07-06T14:20:17;27.30;52.80
45945;DHT22;31655;48.972;10.686;2022-07-06T14:22:44;27.20;52.90
45945;DHT22;31655;48.972;10.686;2022-07-06T14:25:09;27.20;53.90
45945;DHT22;31655;48.972;10.686;2022-07-06T14:27:35;27.20;53.40
45945;DHT22;31655;48.972;10.686;2022-07-06T14:30:01;27.20;53.20
45945;DHT22;31655;48.972;10.686;2022-07-06T14:32:28;26.90;53.30
45945;DHT22;31655;48.972;10.686;2022-07-06T14:34:53;26.80;53.50
45945;DHT22;31655;48.972;10.686;2022-07-06T14:39:45;26.90;53.40
45945;DHT22;31655;48.972;10.686;2022-07-06T14:42:12;27.40;53.50
45945;DHT22;31655;48.972;10.686;2022-07-06T14:44:37;26.60;53.00
45945;DHT22;31655;48.972;10.686;2022-07-06T14:47:03;26.60;53.50
45945;DHT22;31655;48.972;10.686;2022-07-06T14:49:30;26.70;53.90
45945;DHT22;31655;48.972;10.686;2022-07-06T14:51:55;26.80;54.00
45945;DHT22;31655;48.972;10.686;2022-07-06T14:54:25;26.60;53.60
45945;DHT22;31655;48.972;10.686;2022-07-06T14:56:51;26.30;54.80
45945;DHT22;31655;48.972;10.686;2022-07-06T14:59:17;26.30;55.80
45945;DHT22;31655;48.972;10.686;2022-07-06T15:01:43;26.70;54.80
45945;DHT22;31655;48.972;10.686;2022-07-06T15:04:10;27.00;54.60
45945;DHT22;31655;48.972;10.686;2022-07-06T15:06:36;27.10;54.30
45945;DHT22;31655;48.972;10.686;2022-07-06T15:09:03;27.40;54.00
45945;DHT22;31655;48.972;10.686;2022-07-06T15:11:33;27.40;53.20
45945;DHT22;31655;48.972;10.686;2022-07-06T15:13:59;27.30;53.10
45945;DHT22;31655;48.972;10.686;2022-07-06T15:16:24;27.10;52.00
45945;DHT22;31655;48.972;10.686;2022-07-06T15:18:51;26.40;52.50
45945;DHT22;31655;48.972;10.686;2022-07-06T15:21:16;26.40;53.10
45945;DHT22;31655;48.972;10.686;2022-07-06T15:23:43;26.20;53.70
45945;DHT22;31655;48.972;10.686;2022-07-06T15:26:08;25.90;53.80
45945;DHT22;31655;48.972;10.686;2022-07-06T15:28:34;25.90;54.50